LDZALDPL

Guest
Details From LDZA - Zagreb
To LDPL - Pula
Flight Number -
Tags generated
Created
Modified
Stats Distance 104 nm / 193 km
Max Altitude 8,500 ft / 2,591 m
Waypoints 3
Social Downloads 0
Likes 0
Share VATSIM

Download

Looking for another format? Having issues loading an existing format? Contact us
Advertisement - Login to hide

Notes

Basic altitude profile: - Ascent Rate: 2500ft/min - Ascent Speed: 250kts - Cruise Altitude: 35000ft - Cruise Speed: 420kts - Descent Rate: 1500ft/min - Descent Speed: 250kts Options: - Use NATs: no - Use PACOTS: no - Use low airways: yes - Use high airways: no

Route

LDZA KERLO LDPL

ID Type Via Altitude Latitude Longitude Leg Dist Tot Dist Heading (true) Name
O LDZA APT - 0 ft / 0 m 45.74189˚ 16.06720˚ - 0 nm - Zagreb
KERLO FIX - 8,500 ft / 2,591 m 45.53528˚ 15.57861˚ 23 nm 23 nm 239° / 239° -
O LDPL APT - 0 ft / 0 m 44.89353˚ 13.92216˚ 79 nm 103 nm 242° / 241° Pula

Altitude Profile

Advertisement - Login to hide

LDZA

Details ICAO LDZA (ZAG)
Name Zagreb
Region Croatia
Timezone Europe/Zagreb (UTC+1.0)
Stats Elevation 353 ft / 108 m (AMSL)
Location 45.741890° 16.067200°
Runways 1
Magnetic Variation 3.960° E

METAR

LDZA 172000Z 25003KT 190V290 CAVOK 01/M01 Q1022 NOSIG

Decode

TAF

TAF AMD LDZA 171946Z 1719/1818 VRB02KT CAVOK TX04/1814Z TNM02/1800Z PROB40 1721/1806 2000 BR PROB30 TEMPO 1721/1803 0400 FZFG VV001

Decode

Departure Runways

ID Width Length Bearing (true) Bearing (mag) Surface Threshold Offset Overrun Length
05 148 ft / 45 m 10,659 ft / 3,249 m 46.69° 42.73° Asphalt 0 ft / 0 m 195 ft / 59 m
23 148 ft / 45 m 10,659 ft / 3,249 m 226.71° 222.75° Asphalt 0 ft / 0 m 195 ft / 59 m

LDPL

Details ICAO LDPL (PUY)
Name Pula
Region Croatia
Timezone Europe/Zagreb (UTC+1.0)
Stats Elevation 274 ft / 84 m (AMSL)
Location 44.893531° 13.922156°
Runways 1
Magnetic Variation 3.475° E

METAR

LDPL 172000Z 04007KT CAVOK 02/M04 Q1022 NOSIG

Decode

TAF

TAF LDPL 171725Z 1718/1818 06004KT CAVOK TX07/1813Z TNM01/1805Z

Decode

Destination Runways

ID Width Length Bearing (true) Bearing (mag) Surface Threshold Offset Overrun Length
09 148 ft / 45 m 9,601 ft / 2,926 m 88.24° 84.77° Asphalt 250 ft / 76 m 0 ft / 0 m
27 148 ft / 45 m 9,601 ft / 2,926 m 268.27° 264.80° Asphalt 250 ft / 76 m 0 ft / 0 m

Approach Navaids

Runway Type Ident Frequency Range Bearing (true) Bearing (mag) Slope Elevation
27 Localiser IPU 111.50 MHz 25 nm / 46 km 268.28° 264.81° - 157 ft / 48 m (AMSL)
27 Glidescope IPU 111.50 MHz 25 nm / 46 km 268.28° 264.81° 3.20° 243 ft / 74 m (AMSL)

Popular Alternatives